Terminal Aerodrome Forecast
Issued by NWS

Home | Current Version | Previous Version | Text Only | Print | Product List | Glossary On
Versions: 1 2 3 4 5 6 7 8 9 10 11 12
679
FTUS45 KTFX 261134
TAFCTB
TAF
KCTB 261134Z 2612/2712 15006KT P6SM FEW060 SCT200
     FM262200 24011G18KT P6SM SCT080 BKN150 PROB30 2623/2702
      VRB25G35KT TSRA BKN080CB
     FM270500 26010KT P6SM SCT040 BKN080 PROB30 2706/2712 -SHRA
      BKN040=

USA.gov is the U.S. government's official web portal to all federal, state and local government web resources and services.